Time;durP1;ratioP1;P1;durP2;ratioP2;P2;SDS_P1;SDS_P2;PMS_P1;PMS_P2;Temp;Humidity;BMP_temperature;BMP_pressure;BME280_temperature;BME280_humidity;BME280_pressure;Samples;Min_cycle;Max_cycle;Signal;HPM_P1;HPM_P2
2022/12/19 00:03:53;;;;;;;10.37;5.97;;;14.50;53.80;;;;;;10450083;28;20092;-30
2022/12/19 00:08:57;;;;;;;9.65;6.15;;;14.60;54.00;;;;;;10458332;28;20107;-29
2022/12/19 00:13:59;;;;;;;8.73;4.82;;;14.50;54.00;;;;;;10447883;28;20106;-27
2022/12/19 00:19:03;;;;;;;8.70;5.43;;;14.50;54.50;;;;;;10454365;28;20084;-31
2022/12/19 00:24:07;;;;;;;8.30;4.63;;;14.50;53.90;;;;;;10454098;28;20095;-30
2022/12/19 00:29:09;;;;;;;8.00;4.22;;;14.50;54.00;;;;;;10451362;28;20072;-26
2022/12/19 00:34:12;;;;;;;;;;;14.60;54.00;;;;;;10446905;28;20135;-28
2022/12/19 00:39:14;;;;;;;10.32;5.70;;;14.60;54.00;;;;;;10455492;28;20001;-30
2022/12/19 00:44:16;;;;;;;7.63;4.60;;;14.50;54.00;;;;;;10446013;28;20131;-29
2022/12/19 00:49:20;;;;;;;7.83;4.80;;;14.50;54.20;;;;;;10454072;28;20182;-27
2022/12/19 00:54:22;;;;;;;8.63;5.13;;;14.40;54.10;;;;;;10450504;28;20498;-26
2022/12/19 00:59:23;;;;;;;6.00;4.20;;;14.60;54.10;;;;;;10449942;28;20131;-26
2022/12/19 01:04:27;;;;;;;9.15;4.90;;;14.60;54.10;;;;;;10446798;28;20096;-27
2022/12/19 01:09:28;;;;;;;7.32;4.63;;;14.50;54.40;;;;;;10450924;28;20119;-27
2022/12/19 01:14:30;;;;;;;4.60;3.20;;;14.40;54.40;;;;;;10455553;28;20144;-26
2022/12/19 01:19:33;;;;;;;7.97;4.40;;;14.50;54.20;;;;;;10452612;28;20494;-28
2022/12/19 01:24:35;;;;;;;6.03;3.45;;;14.60;54.20;;;;;;10450167;28;20072;-26
2022/12/19 01:29:37;;;;;;;5.95;4.13;;;14.60;54.20;;;;;;10452096;28;20063;-28
2022/12/19 01:34:40;;;;;;;6.73;3.90;;;14.50;54.40;;;;;;10449747;28;20502;-28
2022/12/19 01:39:42;;;;;;;6.65;3.75;;;14.50;54.40;;;;;;10447613;28;20148;-27
2022/12/19 01:45:27;;;;;;;6.97;4.15;;;14.50;54.30;;;;;;10449463;28;20080;-26
2022/12/19 01:50:36;;;;;;;7.10;3.90;;;14.40;54.60;;;;;;10439651;28;20040;-27
2022/12/19 01:55:40;;;;;;;5.78;3.55;;;14.40;54.60;;;;;;10465390;28;20080;-25
2022/12/19 02:00:44;;;;;;;6.63;3.47;;;14.30;55.00;;;;;;10451142;28;20511;-27
2022/12/19 02:05:47;;;;;;;4.70;3.17;;;14.40;54.80;;;;;;10438823;28;20533;-26
2022/12/19 02:10:49;;;;;;;6.15;2.90;;;14.40;55.00;;;;;;10438279;28;20127;-26
2022/12/19 02:15:59;;;;;;;5.28;3.90;;;14.50;54.70;;;;;;10446222;28;20049;-27
2022/12/19 02:21:24;;;;;;;7.40;3.63;;;14.30;55.60;;;;;;10460813;28;20048;-27
2022/12/19 02:26:46;;;;;;;4.68;3.28;;;14.20;55.20;;;;;;10438966;28;20118;-28
2022/12/19 02:31:56;;;;;;;5.95;3.35;;;14.40;55.00;;;;;;10441327;28;20117;-27
2022/12/19 02:37:03;;;;;;;4.97;3.00;;;14.30;55.30;;;;;;10444485;28;20646;-29
2022/12/19 02:42:09;;;;;;;4.60;3.00;;;14.30;55.20;;;;;;10446856;28;20131;-27
2022/12/19 02:47:14;;;;;;;3.17;2.10;;;14.30;55.20;;;;;;10449724;28;20052;-26
2022/12/19 02:52:44;;;;;;;3.58;2.78;;;14.30;55.30;;;;;;10452453;28;20075;-28
2022/12/19 02:58:01;;;;;;;4.07;2.70;;;14.30;55.40;;;;;;10448970;28;20056;-28
2022/12/19 03:03:11;;;;;;;3.63;2.13;;;14.30;55.60;;;;;;10442233;28;20103;-28
2022/12/19 03:08:23;;;;;;;3.80;1.83;;;14.30;55.90;;;;;;10446425;28;20061;-27
2022/12/19 03:13:28;;;;;;;3.22;2.30;;;14.40;55.30;;;;;;10450515;28;20071;-25
2022/12/19 03:18:33;;;;;;;2.33;1.52;;;14.40;55.40;;;;;;10445570;28;20147;-26
2022/12/19 03:23:35;;;;;;;3.25;2.00;;;14.50;55.00;;;;;;10445808;28;20585;-27
2022/12/19 03:28:43;;;;;;;2.90;2.10;;;14.30;55.60;;;;;;10445486;28;20127;-27
2022/12/19 03:33:49;;;;;;;1.65;1.55;;;14.50;55.20;;;;;;10451699;28;20868;-29
2022/12/19 03:38:52;;;;;;;1.98;1.77;;;14.40;55.40;;;;;;10455433;28;20053;-28
2022/12/19 03:43:53;;;;;;;3.08;2.10;;;14.40;55.50;;;;;;10456160;28;20037;-26
2022/12/19 03:48:57;;;;;;;2.60;1.70;;;14.20;56.00;;;;;;10451468;28;20080;-28
2022/12/19 03:54:03;;;;;;;1.90;1.63;;;14.40;55.70;;;;;;10456458;28;20130;-26
2022/12/19 03:59:09;;;;;;;3.78;2.42;;;14.40;55.80;;;;;;10450240;28;20137;-30
2022/12/19 04:04:14;;;;;;;2.00;1.45;;;14.40;55.80;;;;;;10447149;28;20087;-27
2022/12/19 04:09:19;;;;;;;2.13;1.85;;;14.50;55.40;;;;;;10452534;28;20481;-27
2022/12/19 04:14:27;;;;;;;3.03;1.50;;;14.40;55.80;;;;;;10454328;28;20123;-25
2022/12/19 04:19:42;;;;;;;5.25;1.75;;;14.60;55.40;;;;;;10459176;28;20140;-28
2022/12/19 04:24:48;;;;;;;4.10;3.30;;;14.40;55.70;;;;;;10442596;28;20056;-26
2022/12/19 04:29:54;;;;;;;2.30;1.60;;;13.30;58.80;;;;;;10454530;28;20091;-25
2022/12/19 04:35:00;;;;;;;3.40;1.90;;;14.30;56.50;;;;;;10459719;28;20080;-25
2022/12/19 04:40:02;;;;;;;2.65;1.75;;;13.80;58.50;;;;;;10452984;28;20516;-25
2022/12/19 04:45:05;;;;;;;4.38;3.85;;;13.50;59.50;;;;;;10461481;28;20076;-26
2022/12/19 04:50:08;;;;;;;5.28;4.22;;;13.10;62.10;;;;;;10453211;28;20099;-25
2022/12/19 04:55:11;;;;;;;3.85;1.98;;;13.50;59.60;;;;;;10448913;28;20084;-28
2022/12/19 05:00:13;;;;;;;2.87;2.13;;;13.80;58.40;;;;;;10451519;28;20049;-28
2022/12/19 05:05:17;;;;;;;;;;;13.40;60.80;;;;;;10445261;28;20040;-26
2022/12/19 05:10:19;;;;;;;3.33;2.17;;;12.50;64.20;;;;;;10451284;28;20016;-25
2022/12/19 05:15:22;;;;;;;1.88;1.60;;;13.40;60.60;;;;;;10459771;28;20086;-32
2022/12/19 05:20:25;;;;;;;2.55;1.95;;;14.00;58.40;;;;;;10456423;28;20044;-27
2022/12/19 05:25:27;;;;;;;2.72;2.25;;;13.80;59.10;;;;;;10452920;28;20087;-24
2022/12/19 05:30:29;;;;;;;5.40;3.05;;;11.50;70.40;;;;;;10448642;28;20045;-27
2022/12/19 05:35:33;;;;;;;6.47;4.28;;;13.60;62.80;;;;;;10451312;28;20045;-26
2022/12/19 05:40:34;;;;;;;4.40;3.13;;;12.70;65.90;;;;;;10445420;28;20068;-28
2022/12/19 05:45:36;;;;;;;2.70;2.08;;;14.20;59.50;;;;;;10451471;28;20045;-30
2022/12/19 05:50:39;;;;;;;2.40;1.58;;;13.10;65.40;;;;;;10449341;28;20136;-28
2022/12/19 05:55:41;;;;;;;2.70;1.88;;;13.60;63.30;;;;;;10444419;28;20139;-25
2022/12/19 06:00:43;;;;;;;2.92;2.00;;;13.10;65.90;;;;;;10447655;28;20141;-26
2022/12/19 06:05:46;;;;;;;6.22;3.45;;;13.00;66.60;;;;;;10447998;28;20060;-29
2022/12/19 06:10:48;;;;;;;7.97;4.43;;;12.80;66.80;;;;;;10447696;28;20083;-28
2022/12/19 06:15:50;;;;;;;5.68;3.97;;;12.10;70.50;;;;;;10448646;28;20048;-24
2022/12/19 06:20:58;;;;;;;5.50;3.50;;;11.20;76.30;;;;;;10447764;28;20048;-26
2022/12/19 06:26:01;;;;;;;2.55;1.65;;;11.40;76.30;;;;;;10448676;28;20095;-25
2022/12/19 06:31:04;;;;;;;4.07;2.38;;;13.60;64.80;;;;;;10440050;28;20559;-26
2022/12/19 06:36:11;;;;;;;5.03;3.40;;;13.70;63.40;;;;;;10451584;28;20164;-28
2022/12/19 06:46:34;;;;;;;5.00;3.08;;;13.60;64.10;;;;;;10445140;28;20040;-28
2022/12/19 06:51:37;;;;;;;9.30;4.60;;;13.00;67.60;;;;;;10442567;28;20113;-27
2022/12/19 06:56:41;;;;;;;2.67;2.00;;;12.30;72.20;;;;;;10442151;28;20590;-27
2022/12/19 07:15:31;;;;;;;4.18;1.88;;;13.40;65.70;;;;;;10533120;27;20554;-30
2022/12/19 07:20:34;;;;;;;5.05;2.20;;;14.20;62.40;;;;;;10524928;28;20075;-26
2022/12/19 07:25:37;;;;;;;;;;;14.20;62.50;;;;;;10513852;28;20071;-26
2022/12/19 07:30:40;;;;;;;1.92;1.48;;;13.70;64.50;;;;;;10519699;28;19924;-26
2022/12/19 07:35:42;;;;;;;4.18;2.90;;;13.90;63.50;;;;;;10520210;28;20048;-26
2022/12/19 07:40:44;;;;;;;4.18;2.28;;;13.80;63.50;;;;;;10519009;28;20135;-31
2022/12/19 07:45:47;;;;;;;6.28;2.60;;;13.90;64.10;;;;;;10513685;28;20072;-28
2022/12/19 07:50:49;;;;;;;11.23;3.72;;;14.40;62.00;;;;;;10511689;28;20083;-27
2022/12/19 07:55:52;;;;;;;2.65;2.17;;;13.90;64.00;;;;;;10511410;28;20064;-28
2022/12/19 08:00:55;;;;;;;4.28;2.20;;;14.20;62.30;;;;;;10520304;28;20056;-25
2022/12/19 08:06:00;;;;;;;4.22;2.90;;;14.40;61.60;;;;;;10501143;28;20044;-26
2022/12/19 08:11:10;;;;;;;5.80;1.98;;;14.30;62.90;;;;;;10502355;28;20059;-26
2022/12/19 08:16:13;;;;;;;3.20;2.10;;;14.30;62.40;;;;;;10521218;28;20133;-31
2022/12/19 08:21:15;;;;;;;3.33;2.05;;;14.50;60.90;;;;;;10525404;28;20149;-27
2022/12/19 08:26:23;;;;;;;2.75;2.10;;;14.60;61.40;;;;;;10499507;28;20125;-27
2022/12/19 08:31:28;;;;;;;3.70;2.40;;;14.10;63.30;;;;;;10492314;28;20102;-26
2022/12/19 08:36:30;;;;;;;3.65;2.33;;;13.80;65.10;;;;;;10490170;28;20064;-28
2022/12/19 08:41:32;;;;;;;3.42;1.52;;;14.70;60.90;;;;;;10479416;28;20135;-26
2022/12/19 08:46:35;;;;;;;6.03;1.77;;;14.90;61.00;;;;;;10487531;28;20107;-25
2022/12/19 08:51:37;;;;;;;2.92;1.77;;;14.20;63.80;;;;;;10492343;28;20094;-30
2022/12/19 08:56:39;;;;;;;1.77;1.43;;;14.60;62.80;;;;;;10488463;28;20048;-25
2022/12/19 09:01:42;;;;;;;2.63;1.38;;;15.20;60.00;;;;;;10489460;28;20086;-31
2022/12/19 09:06:44;;;;;;;1.95;1.50;;;15.10;59.80;;;;;;10489785;28;20106;-28
2022/12/19 09:11:46;;;;;;;3.50;2.73;;;15.10;60.40;;;;;;10489539;28;20215;-25
2022/12/19 09:16:49;;;;;;;2.40;1.70;;;14.80;61.80;;;;;;10489771;28;20126;-28
2022/12/19 09:21:51;;;;;;;2.70;2.25;;;14.80;61.70;;;;;;10488881;28;20065;-25
2022/12/19 09:26:53;;;;;;;1.70;1.00;;;14.40;64.10;;;;;;10489889;28;20048;-26
2022/12/19 09:31:56;;;;;;;2.73;1.97;;;15.10;60.40;;;;;;10490201;28;20334;-25
2022/12/19 09:36:58;;;;;;;5.25;2.13;;;13.80;68.00;;;;;;10489502;28;20044;-28
2022/12/19 09:42:26;;;;;;;4.82;1.60;;;14.50;63.40;;;;;;10492410;28;20051;-30
2022/12/19 09:47:31;;;;;;;5.40;1.77;;;14.70;62.70;;;;;;10466484;28;20138;-25
2022/12/19 09:52:38;;;;;;;2.45;1.88;;;14.90;61.90;;;;;;10487238;28;20103;-26
2022/12/19 09:57:46;;;;;;;1.83;1.45;;;14.40;64.70;;;;;;10485604;28;20143;-24
2022/12/19 10:02:56;;;;;;;3.95;2.03;;;14.00;67.30;;;;;;10488272;28;20102;-27
2022/12/19 10:07:57;;;;;;;3.00;1.58;;;14.30;66.70;;;;;;10488067;28;20564;-28
2022/12/19 10:13:13;;;;;;;2.93;1.50;;;14.30;65.40;;;;;;10481477;28;20063;-26
2022/12/19 10:18:32;;;;;;;2.42;1.95;;;14.00;67.70;;;;;;10489298;28;20413;-33
2022/12/19 10:24:00;;;;;;;3.97;2.20;;;14.30;66.00;;;;;;10487211;28;20131;-27
2022/12/19 10:29:18;;;;;;;5.00;2.47;;;13.80;70.80;;;;;;10485725;28;20153;-25
2022/12/19 10:34:24;;;;;;;3.22;1.58;;;12.90;74.80;;;;;;10487418;28;20421;-27
2022/12/19 10:39:31;;;;;;;4.57;1.98;;;14.60;65.60;;;;;;10482597;28;20056;-27
2022/12/19 10:44:36;;;;;;;2.63;2.20;;;14.00;67.50;;;;;;10479232;28;20045;-27
2022/12/19 10:49:39;;;;;;;6.68;2.80;;;13.40;71.60;;;;;;10488290;28;20044;-27
2022/12/19 10:54:43;;;;;;;5.43;2.30;;;13.00;76.90;;;;;;10472313;28;20531;-26
2022/12/19 10:59:54;;;;;;;3.88;2.08;;;12.40;79.40;;;;;;10486869;28;20685;-24
2022/12/19 11:04:58;;;;;;;6.70;2.78;;;13.50;76.10;;;;;;10488441;28;20122;-25
2022/12/19 11:09:59;;;;;;;4.03;1.92;;;14.10;68.70;;;;;;10488299;28;20131;-28
2022/12/19 11:15:14;;;;;;;2.83;1.98;;;14.00;68.90;;;;;;10490155;28;20060;-27
2022/12/19 11:20:22;;;;;;;1.92;1.40;;;13.60;73.60;;;;;;10487104;28;20055;-26
2022/12/19 11:25:36;;;;;;;4.45;1.60;;;14.60;66.10;;;;;;10484585;28;20048;-26
2022/12/19 11:30:40;;;;;;;2.92;1.63;;;14.10;71.50;;;;;;10488929;28;20490;-25
2022/12/19 11:35:49;;;;;;;3.53;2.17;;;14.30;68.90;;;;;;10488443;28;20059;-27
2022/12/19 11:40:56;;;;;;;5.30;1.75;;;13.10;77.10;;;;;;10481923;28;20055;-28
2022/12/19 11:46:02;;;;;;;4.35;2.60;;;13.70;73.20;;;;;;10482414;28;20109;-30
2022/12/19 11:51:17;;;;;;;2.53;1.33;;;12.90;81.00;;;;;;10483519;28;20079;-26
2022/12/19 11:56:22;;;;;;;7.40;2.67;;;13.80;76.00;;;;;;10484196;28;20379;-28
2022/12/19 12:01:41;;;;;;;2.03;1.60;;;12.70;83.70;;;;;;10489378;28;20098;-27
2022/12/19 12:06:48;;;;;;;1.77;1.33;;;14.30;71.10;;;;;;10485917;28;20080;-25
2022/12/19 12:11:56;;;;;;;2.80;1.30;;;14.30;69.20;;;;;;10489335;28;20477;-27
2022/12/19 12:17:22;;;;;;;2.65;1.38;;;14.50;69.90;;;;;;10498731;28;20055;-25
2022/12/19 12:22:45;;;;;;;2.40;1.83;;;14.80;66.30;;;;;;10490018;28;20580;-26
2022/12/19 12:28:00;;;;;;;4.90;1.77;;;14.40;69.10;;;;;;10493490;28;20131;-27
2022/12/19 12:33:13;;;;;;;2.95;1.52;;;14.60;66.50;;;;;;10497377;28;20044;-28
2022/12/19 12:38:41;;;;;;;1.40;1.10;;;15.10;64.20;;;;;;10490150;28;20045;-28
2022/12/19 12:44:03;;;;;;;2.65;1.88;;;15.10;64.00;;;;;;10493421;28;20547;-28
2022/12/19 12:49:12;;;;;;;6.15;2.40;;;15.00;63.90;;;;;;10491785;28;20093;-29
2022/12/19 12:54:17;;;;;;;2.60;1.25;;;14.80;65.50;;;;;;10483065;28;20508;-27
2022/12/19 12:59:22;;;;;;;3.45;1.20;;;15.10;64.40;;;;;;10490999;28;20048;-27
2022/12/19 13:04:34;;;;;;;2.10;1.25;;;14.90;65.50;;;;;;10479666;28;20059;-27
2022/12/19 13:09:38;;;;;;;4.13;1.63;;;15.30;62.30;;;;;;10484681;28;20052;-27
2022/12/19 13:14:45;;;;;;;3.38;1.65;;;14.90;64.30;;;;;;10490809;28;20066;-28
2022/12/19 13:19:56;;;;;;;2.42;1.15;;;15.10;63.40;;;;;;10491735;28;20056;-27
2022/12/19 13:25:00;;;;;;;1.55;1.20;;;15.70;61.00;;;;;;10488990;28;20052;-25
2022/12/19 13:30:13;;;;;;;1.98;1.48;;;15.70;60.40;;;;;;10490581;28;20076;-29
2022/12/19 13:35:30;;;;;;;;;;;15.40;62.00;;;;;;10486350;28;20083;-26
2022/12/19 13:40:51;;;;;;;1.70;1.20;;;15.60;60.90;;;;;;10490026;28;19956;-26
2022/12/19 13:45:55;;;;;;;1.17;0.90;;;15.00;63.80;;;;;;10488461;28;20111;-27
2022/12/19 13:51:00;;;;;;;3.53;1.52;;;15.50;61.30;;;;;;10491945;28;20105;-25
2022/12/19 13:56:05;;;;;;;3.33;1.98;;;15.50;61.50;;;;;;10491982;28;20043;-25
2022/12/19 14:01:15;;;;;;;3.55;2.17;;;15.10;63.30;;;;;;10489144;28;20462;-24
2022/12/19 14:06:21;;;;;;;3.35;1.60;;;14.90;64.30;;;;;;10483554;28;20083;-26
2022/12/19 14:11:24;;;;;;;2.45;1.50;;;14.40;68.50;;;;;;10486800;28;20059;-25
2022/12/19 14:16:26;;;;;;;4.28;2.30;;;14.10;69.40;;;;;;10484983;28;20052;-29
2022/12/19 14:21:30;;;;;;;2.80;1.80;;;13.80;73.00;;;;;;10487956;28;20567;-27
2022/12/19 14:26:33;;;;;;;4.18;1.95;;;13.50;73.80;;;;;;10487757;28;20048;-27
2022/12/19 14:31:37;;;;;;;5.95;1.95;;;13.90;71.60;;;;;;10486479;28;20080;-29
2022/12/19 14:36:46;;;;;;;1.50;1.10;;;13.60;74.10;;;;;;10485200;28;20049;-26
2022/12/19 14:47:12;;;;;;;;;;;14.10;70.80;;;;;;10482549;28;20056;-26
2022/12/19 14:52:40;;;;;;;1.77;1.35;;;14.70;67.60;;;;;;10493667;28;19971;-25
2022/12/19 14:57:43;;;;;;;1.10;0.95;;;14.70;67.70;;;;;;10484644;28;20056;-27
2022/12/19 15:02:45;;;;;;;2.97;1.38;;;15.10;65.00;;;;;;10488220;28;20961;-29
2022/12/19 15:07:49;;;;;;;1.73;1.20;;;15.60;62.80;;;;;;10487194;28;20048;-28
2022/12/19 15:13:18;;;;;;;1.92;1.30;;;15.10;65.00;;;;;;10491415;28;20444;-28
2022/12/19 15:18:26;;;;;;;2.65;1.23;;;15.50;63.40;;;;;;10485120;28;20045;-27
2022/12/19 15:23:29;;;;;;;4.03;1.20;;;15.70;62.60;;;;;;10489945;28;20041;-26
2022/12/19 15:28:35;;;;;;;;;;;15.40;64.20;;;;;;10495524;28;20040;-26
2022/12/19 15:33:37;;;;;;;4.30;1.30;;;14.80;66.20;;;;;;10495645;28;20007;-30
2022/12/19 15:38:40;;;;;;;1.53;1.43;;;14.70;67.80;;;;;;10493004;28;20071;-27
2022/12/19 15:43:43;;;;;;;2.95;1.02;;;15.00;66.00;;;;;;10499688;28;20474;-27
2022/12/19 15:48:48;;;;;;;1.13;0.90;;;15.30;65.10;;;;;;10497713;28;20520;-27
2022/12/19 15:53:50;;;;;;;3.10;1.02;;;15.70;63.60;;;;;;10490168;28;20052;-28
2022/12/19 15:58:55;;;;;;;7.20;2.47;;;15.90;62.40;;;;;;10492254;28;20052;-27
2022/12/19 16:03:59;;;;;;;2.80;1.00;;;15.90;62.00;;;;;;10495996;28;20672;-31
2022/12/19 16:09:01;;;;;;;2.65;1.05;;;15.90;62.50;;;;;;10495022;28;20485;-28
2022/12/19 16:14:04;;;;;;;3.73;1.47;;;16.40;64.00;;;;;;10496770;28;20106;-27
2022/12/19 16:19:25;;;;;;;6.53;1.65;;;16.40;61.40;;;;;;10493391;28;20064;-28
2022/12/19 16:24:27;;;;;;;2.92;1.20;;;15.30;65.60;;;;;;10496729;28;20145;-28
2022/12/19 16:29:31;;;;;;;2.03;1.20;;;15.90;63.70;;;;;;10495826;28;20144;-25
2022/12/19 16:34:33;;;;;;;3.55;1.60;;;15.40;64.30;;;;;;10487199;28;20056;-26
2022/12/19 16:39:35;;;;;;;2.30;1.10;;;16.20;62.00;;;;;;10490885;28;20044;-27
2022/12/19 16:44:38;;;;;;;3.83;1.33;;;16.10;62.20;;;;;;10496293;28;20525;-29
2022/12/19 16:49:40;;;;;;;6.30;1.83;;;16.00;62.90;;;;;;10491114;28;20084;-29
2022/12/19 16:54:42;;;;;;;2.50;1.65;;;15.90;62.40;;;;;;10483526;28;20108;-27
2022/12/19 16:59:46;;;;;;;2.93;1.90;;;15.60;63.90;;;;;;10487546;28;20397;-32
2022/12/19 17:04:48;;;;;;;4.55;1.25;;;14.90;66.20;;;;;;10491802;28;20413;-27
2022/12/19 17:09:50;;;;;;;1.53;0.83;;;15.70;64.10;;;;;;10490939;28;20044;-29
2022/12/19 17:14:53;;;;;;;3.40;1.50;;;15.80;64.00;;;;;;10487179;28;20067;-30
2022/12/19 17:19:55;;;;;;;6.57;2.20;;;15.50;63.50;;;;;;10491153;28;20856;-31
2022/12/19 17:24:58;;;;;;;5.33;3.10;;;15.00;66.90;;;;;;10487062;28;20131;-29
2022/12/19 17:30:02;;;;;;;3.45;2.08;;;15.60;64.40;;;;;;10489551;28;20044;-28
2022/12/19 17:35:04;;;;;;;2.95;1.50;;;15.20;65.80;;;;;;10488402;28;20052;-31
2022/12/19 17:40:14;;;;;;;;;;;15.70;63.90;;;;;;10487851;28;20181;-28
2022/12/19 17:45:20;;;;;;;6.95;2.17;;;15.40;63.90;;;;;;10491481;28;19931;-28
2022/12/19 17:50:25;;;;;;;3.55;1.60;;;15.20;65.40;;;;;;10493858;28;20048;-29
2022/12/19 17:55:29;;;;;;;5.63;2.03;;;15.70;64.10;;;;;;10484938;28;20811;-29
2022/12/19 18:00:33;;;;;;;5.50;2.00;;;15.80;63.20;;;;;;10486447;28;20103;-27
2022/12/19 18:05:36;;;;;;;4.78;2.30;;;15.70;63.70;;;;;;10491917;28;20125;-30
2022/12/19 18:10:38;;;;;;;5.18;2.83;;;15.40;64.30;;;;;;10487978;28;20053;-27
2022/12/19 18:15:41;;;;;;;7.03;2.47;;;14.60;67.30;;;;;;10483943;28;20060;-31
2022/12/19 18:20:44;;;;;;;8.43;2.67;;;15.70;64.20;;;;;;10489380;28;20082;-31
2022/12/19 18:25:46;;;;;;;;;;;15.80;63.60;;;;;;10487741;28;20490;-26
2022/12/19 18:30:51;;;;;;;5.30;2.47;;;15.70;64.30;;;;;;10490819;28;19931;-30
2022/12/19 18:35:53;;;;;;;5.13;2.30;;;15.50;64.20;;;;;;10484929;28;20500;-28
2022/12/19 18:40:54;;;;;;;5.33;2.80;;;15.10;65.80;;;;;;10491014;28;20056;-26
2022/12/19 18:45:58;;;;;;;7.90;2.33;;;15.10;65.90;;;;;;10485862;28;20870;-26
2022/12/19 18:51:01;;;;;;;6.82;2.60;;;14.90;68.10;;;;;;10487843;28;20078;-30
2022/12/19 18:56:04;;;;;;;4.45;2.25;;;15.00;66.20;;;;;;10486655;28;20139;-26
2022/12/19 19:01:14;;;;;;;5.82;2.75;;;15.20;66.80;;;;;;10487230;28;20389;-27
2022/12/19 19:06:18;;;;;;;5.88;2.55;;;15.10;66.40;;;;;;10488398;28;20043;-25
2022/12/19 19:11:22;;;;;;;3.70;2.53;;;15.40;65.90;;;;;;10490887;28;20077;-27
2022/12/19 19:16:26;;;;;;;5.43;2.45;;;14.60;67.60;;;;;;10490658;28;20041;-26
2022/12/19 19:21:32;;;;;;;7.93;2.08;;;14.90;68.00;;;;;;10493663;28;20044;-27
2022/12/19 19:26:34;;;;;;;5.72;2.55;;;15.60;65.20;;;;;;10487264;28;20501;-27
2022/12/19 19:31:40;;;;;;;3.60;1.70;;;15.30;66.40;;;;;;10490168;28;20041;-27
2022/12/19 19:36:46;;;;;;;6.35;2.17;;;15.70;65.50;;;;;;10485807;28;20135;-26
2022/12/19 19:41:48;;;;;;;6.35;2.72;;;15.40;66.90;;;;;;10487715;28;20135;-27
2022/12/19 19:46:51;;;;;;;3.80;2.23;;;15.20;66.00;;;;;;10486470;28;20146;-27
2022/12/19 19:51:53;;;;;;;7.53;2.00;;;16.00;63.70;;;;;;10490208;28;20044;-29
2022/12/19 19:56:54;;;;;;;4.73;2.90;;;16.10;64.10;;;;;;10484233;28;20186;-28
2022/12/19 20:01:58;;;;;;;5.27;2.33;;;15.00;66.60;;;;;;10486239;28;20063;-27
2022/12/19 20:07:00;;;;;;;6.80;3.53;;;16.20;63.40;;;;;;10490498;28;20061;-26
2022/12/19 20:12:02;;;;;;;2.08;1.65;;;16.20;63.70;;;;;;10487026;28;20044;-30
2022/12/19 20:17:05;;;;;;;5.97;1.73;;;16.20;64.30;;;;;;10484746;28;20769;-28
2022/12/19 20:22:07;;;;;;;9.38;2.95;;;16.00;64.50;;;;;;10487462;28;20052;-31
2022/12/19 20:27:09;;;;;;;4.23;1.53;;;16.20;63.00;;;;;;10489380;28;20151;-28
2022/12/19 20:32:13;;;;;;;4.13;1.85;;;16.20;64.00;;;;;;10489734;28;20242;-28
2022/12/19 20:37:16;;;;;;;5.88;1.80;;;16.00;64.20;;;;;;10488113;28;20624;-27
2022/12/19 20:42:18;;;;;;;5.80;2.53;;;16.30;63.70;;;;;;10490646;28;20113;-28
2022/12/19 20:47:23;;;;;;;2.53;1.35;;;16.20;63.30;;;;;;10487160;28;20181;-27
2022/12/19 20:52:25;;;;;;;4.63;2.35;;;16.60;62.40;;;;;;10493921;28;20079;-27
2022/12/19 20:57:28;;;;;;;3.73;2.10;;;16.30;63.50;;;;;;10493650;28;20088;-26
2022/12/19 21:02:31;;;;;;;7.43;2.20;;;15.50;65.80;;;;;;10495650;28;20079;-28
2022/12/19 21:07:33;;;;;;;3.50;2.05;;;16.40;63.20;;;;;;10490237;28;20075;-27
2022/12/19 21:12:35;;;;;;;2.03;1.53;;;15.70;65.90;;;;;;10495507;28;20466;-27
2022/12/19 21:17:38;;;;;;;4.33;1.47;;;16.40;63.00;;;;;;10491700;28;20093;-25
2022/12/19 21:22:41;;;;;;;4.57;1.42;;;16.20;63.70;;;;;;10495540;28;20086;-27
2022/12/19 21:27:43;;;;;;;3.90;1.95;;;16.40;62.80;;;;;;10490365;28;20059;-27
2022/12/19 21:32:47;;;;;;;6.37;1.57;;;16.00;64.20;;;;;;10494016;28;20044;-27
2022/12/19 21:37:50;;;;;;;4.70;1.70;;;16.30;63.40;;;;;;10486417;28;20525;-26
2022/12/19 21:42:52;;;;;;;6.90;1.85;;;16.40;62.40;;;;;;10493974;28;20092;-27
2022/12/19 21:47:56;;;;;;;3.83;1.80;;;16.40;62.40;;;;;;10492460;28;20037;-27
2022/12/19 21:52:58;;;;;;;6.55;2.17;;;16.50;61.80;;;;;;10487662;28;20090;-29
2022/12/19 21:58:00;;;;;;;7.60;1.73;;;16.40;62.30;;;;;;10491157;28;20136;-26
2022/12/19 22:03:04;;;;;;;4.00;1.23;;;16.40;62.00;;;;;;10492270;28;20053;-28
2022/12/19 22:08:05;;;;;;;4.43;1.80;;;16.50;61.70;;;;;;10488018;28;20131;-31
2022/12/19 22:13:07;;;;;;;4.80;1.80;;;16.60;61.60;;;;;;10482136;28;20052;-26
2022/12/19 22:18:11;;;;;;;3.20;1.77;;;16.50;61.60;;;;;;10482581;28;20087;-28
2022/12/19 22:23:13;;;;;;;4.53;1.55;;;16.40;62.00;;;;;;10488365;28;20048;-27
2022/12/19 22:28:15;;;;;;;6.80;1.97;;;16.50;62.40;;;;;;10492109;28;20036;-27
2022/12/19 22:33:18;;;;;;;2.23;1.10;;;16.40;61.90;;;;;;10488507;28;20151;-37
2022/12/19 22:38:20;;;;;;;4.10;1.67;;;16.40;62.00;;;;;;10487380;28;20613;-26
2022/12/19 22:43:22;;;;;;;4.15;1.30;;;16.40;62.20;;;;;;10485599;28;20450;-26
2022/12/19 22:48:26;;;;;;;6.05;1.70;;;16.60;61.40;;;;;;10473363;28;20052;-26
2022/12/19 22:53:28;;;;;;;4.43;1.55;;;16.50;61.30;;;;;;10489709;28;20049;-26
2022/12/19 22:58:29;;;;;;;5.20;1.98;;;16.60;61.20;;;;;;10487726;28;20141;-27
2022/12/19 23:03:33;;;;;;;3.57;1.20;;;16.30;62.20;;;;;;10486050;28;20147;-28
2022/12/19 23:08:35;;;;;;;4.53;1.50;;;16.30;62.40;;;;;;10487464;28;20125;-28
2022/12/19 23:13:38;;;;;;;5.85;2.45;;;16.10;62.70;;;;;;10486016;28;20125;-28
2022/12/19 23:18:42;;;;;;;1.63;1.25;;;15.40;65.20;;;;;;10486791;28;20044;-27
2022/12/19 23:23:45;;;;;;;4.22;2.10;;;16.10;62.60;;;;;;10489163;28;20049;-30
2022/12/19 23:28:51;;;;;;;1.70;1.25;;;15.40;64.90;;;;;;10483340;28;20088;-27
2022/12/19 23:33:55;;;;;;;3.92;1.55;;;16.10;63.00;;;;;;10488280;28;20410;-27
2022/12/19 23:38:57;;;;;;;3.78;1.65;;;16.20;62.40;;;;;;10487253;28;20130;-28
2022/12/19 23:43:59;;;;;;;5.20;1.73;;;15.80;64.30;;;;;;10487226;28;20135;-27
2022/12/19 23:49:03;;;;;;;3.37;2.00;;;15.00;67.30;;;;;;10486638;28;20064;-26
2022/12/19 23:54:05;;;;;;;3.15;1.90;;;15.00;67.90;;;;;;10487703;28;20117;-28
2022/12/19 23:59:07;;;;;;;5.38;2.22;;;15.40;66.20;;;;;;10498005;28;20328;-27
